Decoded Metar for KLDJ ( in _UNIDENTIFIED) (IATA:N/A) | Meteo·Mobile Aviation Weather
aviador You're here:

KLDJ Decoded Metar

in _UNIDENTIFIED
Report Time2018-12-18 16:35:00
UTC Time2018-12-18 16:48:23
Flight Rules vfr VFR
Wind340° at 17 Gusting to 23 kt
W.Decomp.*RWY 27: 2.1 kt HW 16.9 kt RCW
W.Rank340° ranks 8
Current wind is above 340° avg. (7.8)
Visibility9999 m
Phenomena:N/A
Clouds:N/A
Expected CloudBase > 4,800 ft AGL from Temp-Dew spread
CeilingNone
Temp02°C (ISA -13)
Dew Point-10°C (41% RH)
AAT-7.2°C
QNH1018 hPa
Density Alt-1,683 ft
Elevation23 ft
Report Wrong Elevation
Raw Report
KLDJ 181635Z AUTO 34017G23KT 10SM CLR 02/M10 A3005 RMK AO2
T00161105=

Extra information for KLDJ:More info

Metar Taf Metar & Taf Last 4 Metars F.Rules Stats Wind Profile Meteogram Temp Stats Metar ALERT Operation Metar Decoded Social comments